Townline, New York
Current Conditions -  °F | °C
As of 6:54 PM on Sunday 23 Nov 2014 (Local Time) from KBUF Reporting Station
Overcast Overcast  
Wind Chill: 50°   Ceiling: 19000
Heat Index: 50°   Visibility: 10mi
Dew Point: 36°   Wind: 13mph
Humidity: 59%   Direction: 150°SSE
Pressure: 29.79"   Gusts: NA
Location:  42.8931°N, 78.5076°W
Report Text: KBUF 232354Z 15011KT 10SM SCT100 BKN190 OVC230 10/02 A2979 RMK AO2 SLP093 T01000022 10100 20083 56032
Loading
Personal Weather Stations






























Interactive Weather Map New forecast layout! Learn more

10-Day Weather Forecast

Advertisements
Track Severe Weather on mobile